Sd416 Nippon — SKPF — position and weather

sailwx.info

Track history (hours):
 
Tides and Currents Weather Stations Pressure Air Temp Water Temp Dewpoint Dewpoint Depression Visibility Wind Speed Wind Dir Waves Ship Positions

Sd416 Nippon

Last reported at 2015-May-28 03:33 UTC. Time now 2015-May-29 08:21 UTC.
Position N 58°55' E 011°03'.

Length 17 m; draft 2.5 m.

Type: Fishing. MMSI: 266163000.

Date/timePositionNaut miles runAvg speedWind from/ knotsBaromVisibWave heightAir tempDewpointWater temp
2015-May-28 03:33N 58°55' E 011°03'8 6.9
2015-May-28 02:20N 58°51' E 010°49'8 6.9
2015-May-28 01:12N 58°48' E 010°35'4 6.3
2015-May-28 00:32N 58°45' E 010°29'7 6.0
2015-May-27 23:24N 58°42' E 010°17'1 0.7
2015-May-27 22:33N 58°42' E 010°18'1 1.3
2015-May-27 21:33N 58°40' E 010°20'1 1.3
2015-May-27 20:33N 58°39' E 010°20'1 1.2
2015-May-27 19:33N 58°38' E 010°20'1 1.2
2015-May-27 18:33N 58°37' E 010°20'1 1.2
2015-May-27 17:33N 58°36' E 010°21'1 1.1
2015-May-27 16:33N 58°35' E 010°22'1 1.2
2015-May-27 15:33N 58°35' E 010°24'1 0.7
2015-May-27 14:33N 58°36' E 010°23'1 1.1
2015-May-27 13:32N 58°35' E 010°24'1 1.3
2015-May-27 12:33N 58°34' E 010°26'1 1.3
2015-May-27 11:33N 58°33' E 010°27'1 1.3
2015-May-27 10:33N 58°32' E 010°27'1 1.3
2015-May-27 09:33N 58°31' E 010°28'1 1.3
2015-May-27 08:33N 58°30' E 010°30'1 1.3
2015-May-27 07:33N 58°28' E 010°31'1 1.2
2015-May-27 06:33N 58°27' E 010°32'2 2.0
2015-May-27 05:33N 58°29' E 010°30'8 4.1
2015-May-27 03:33N 58°36' E 010°21'1 1.2
2015-May-27 02:33N 58°35' E 010°23'1 1.2
2015-May-27 01:24N 58°34' E 010°25'1 1.3
2015-May-27 00:33N 58°33' E 010°26'1 1.3
2015-May-26 23:33N 58°32' E 010°26'1 1.3
2015-May-26 22:33N 58°31' E 010°27'1 1.3
2015-May-26 21:33N 58°29' E 010°28'1 1.3
2015-May-26 20:33N 58°29' E 010°30'1 1.3
2015-May-26 19:33N 58°28' E 010°31'1 1.3
2015-May-26 18:33N 58°26' E 010°30'1 1.3
2015-May-26 17:33N 58°25' E 010°30'4 3.9
2015-May-26 16:33N 58°28' E 010°35'7 6.8
2015-May-26 15:33N 58°33' E 010°43'6 6.2
2015-May-26 14:33N 58°38' E 010°50'8 6.6
2015-May-26 13:24N 58°44' E 010°59'8 7.4
2015-May-26 12:17N 58°52' E 011°06'4 1.4
2015-May-26 09:33N 58°55' E 011°03'9 7.2
2015-May-26 08:15N 58°53' E 010°45'20 2.5
2015-May-26 00:29N 58°44' E 010°11'1 1.5
2015-May-25 23:32N 58°43' E 010°12'3 0.9
2015-May-25 20:26N 58°45' E 010°10'1 1.2
2015-May-25 19:33N 58°46' E 010°11'1 1.4
2015-May-25 18:33N 58°47' E 010°13'7 0.4
2015-May-25 01:20N 58°41' E 010°21'2 1.3
2015-May-25 00:04N 58°40' E 010°23'1 1.3
2015-May-24 23:33N 58°40' E 010°24'1 1.2
2015-May-24 22:31N 58°39' E 010°25'1 1.3
2015-May-24 21:32N 58°38' E 010°27'1 1.4
2015-May-24 20:33N 58°37' E 010°29'3 2.6
2015-May-24 19:16N 58°39' E 010°35'12 5.8
2015-May-24 17:08N 58°49' E 010°48'3 6.0
2015-May-24 16:33N 58°52' E 010°52'7 6.2
2015-May-24 15:29N 58°56' E 011°02'4 0.2
2015-May-23 16:31N 58°56' E 011°10'0 0.0
2015-May-23 15:31N 58°56' E 011°10'0 0.0
2015-May-23 14:10N 58°56' E 011°10'3 0.1
2015-May-21 11:32N 58°57' E 011°04'7 7.4
2015-May-21 10:33N 59°02' E 010°55'3 2.7
2015-May-21 09:33N 59°05' E 010°52'0 0.0
2015-May-21 08:33N 59°05' E 010°52'0 0.0
2015-May-21 07:33N 59°05' E 010°52'0 0.0
2015-May-21 06:33N 59°05' E 010°52'0 0.0
2015-May-21 05:33N 59°05' E 010°52'2 2.3
2015-May-21 04:33N 59°03' E 010°55'8 0.7
2015-May-20 17:31N 58°55' E 011°01'25 0.8
2015-May-19 10:06N 58°40' E 010°23'2 1.2
2015-May-19 08:21N 58°38' E 010°26'1 1.4
2015-May-19 07:33N 58°37' E 010°27'1 1.3
2015-May-19 06:32N 58°36' E 010°28'2 1.6
2015-May-19 05:33N 58°35' E 010°30'6 1.5
2015-May-19 01:33N 58°38' E 010°20'1 1.3
2015-May-19 00:33N 58°37' E 010°20'1 1.3
2015-May-18 23:33N 58°35' E 010°22'1 1.3
2015-May-18 22:30N 58°34' E 010°23'1 1.3
2015-May-18 21:32N 58°33' E 010°24'1 1.4
2015-May-18 20:33N 58°32' E 010°24'6 0.9
2015-May-18 14:08N 58°37' E 010°19'0 0.4
2015-May-18 13:33N 58°36' E 010°19'1 1.4
2015-May-18 12:28N 58°35' E 010°20'2 1.4
2015-May-18 11:19N 58°34' E 010°22'1 1.4
2015-May-18 10:33N 58°33' E 010°23'1 1.4
2015-May-18 09:34N 58°32' E 010°24'1 1.4
2015-May-18 08:33N 58°31' E 010°26'1 1.4
2015-May-18 07:34N 58°30' E 010°28'1 1.3
2015-May-18 06:33N 58°29' E 010°30'1 1.3
2015-May-18 05:33N 58°28' E 010°31'1 1.4
2015-May-18 04:33N 58°26' E 010°30'1 1.3
2015-May-18 03:33N 58°25' E 010°30'  
Track history (hours):
 
Tides and Currents Weather Stations Pressure Air Temp Water Temp Dewpoint Dewpoint Depression Visibility Wind Speed Wind Dir Waves Ship Positions

Sd416 Nippon

Last reported at 2015-May-28 03:33 UTC. Time now 2015-May-29 08:21 UTC.
Position N 58°55' E 011°03'.

Length 17 m; draft 2.5 m.

Type: Fishing. MMSI: 266163000.

Date/timePositionNaut miles runAvg speedWind from/ knotsBaromVisibWave heightAir tempDewpointWater temp
2015-May-28 03:33N 58°55' E 011°03'8 6.9
2015-May-28 02:20N 58°51' E 010°49'8 6.9
2015-May-28 01:12N 58°48' E 010°35'4 6.3
2015-May-28 00:32N 58°45' E 010°29'7 6.0
2015-May-27 23:24N 58°42' E 010°17'1 0.7
2015-May-27 22:33N 58°42' E 010°18'1 1.3
2015-May-27 21:33N 58°40' E 010°20'1 1.3
2015-May-27 20:33N 58°39' E 010°20'1 1.2
2015-May-27 19:33N 58°38' E 010°20'1 1.2
2015-May-27 18:33N 58°37' E 010°20'1 1.2
2015-May-27 17:33N 58°36' E 010°21'1 1.1
2015-May-27 16:33N 58°35' E 010°22'1 1.2
2015-May-27 15:33N 58°35' E 010°24'1 0.7
2015-May-27 14:33N 58°36' E 010°23'1 1.1
2015-May-27 13:32N 58°35' E 010°24'1 1.3
2015-May-27 12:33N 58°34' E 010°26'1 1.3
2015-May-27 11:33N 58°33' E 010°27'1 1.3
2015-May-27 10:33N 58°32' E 010°27'1 1.3
2015-May-27 09:33N 58°31' E 010°28'1 1.3
2015-May-27 08:33N 58°30' E 010°30'1 1.3
2015-May-27 07:33N 58°28' E 010°31'1 1.2
2015-May-27 06:33N 58°27' E 010°32'2 2.0
2015-May-27 05:33N 58°29' E 010°30'8 4.1
2015-May-27 03:33N 58°36' E 010°21'1 1.2
2015-May-27 02:33N 58°35' E 010°23'1 1.2
2015-May-27 01:24N 58°34' E 010°25'1 1.3
2015-May-27 00:33N 58°33' E 010°26'1 1.3
2015-May-26 23:33N 58°32' E 010°26'1 1.3
2015-May-26 22:33N 58°31' E 010°27'1 1.3
2015-May-26 21:33N 58°29' E 010°28'1 1.3
2015-May-26 20:33N 58°29' E 010°30'1 1.3
2015-May-26 19:33N 58°28' E 010°31'1 1.3
2015-May-26 18:33N 58°26' E 010°30'1 1.3
2015-May-26 17:33N 58°25' E 010°30'4 3.9
2015-May-26 16:33N 58°28' E 010°35'7 6.8
2015-May-26 15:33N 58°33' E 010°43'6 6.2
2015-May-26 14:33N 58°38' E 010°50'8 6.6
2015-May-26 13:24N 58°44' E 010°59'8 7.4
2015-May-26 12:17N 58°52' E 011°06'4 1.4
2015-May-26 09:33N 58°55' E 011°03'9 7.2
2015-May-26 08:15N 58°53' E 010°45'20 2.5
2015-May-26 00:29N 58°44' E 010°11'1 1.5
2015-May-25 23:32N 58°43' E 010°12'3 0.9
2015-May-25 20:26N 58°45' E 010°10'1 1.2
2015-May-25 19:33N 58°46' E 010°11'1 1.4
2015-May-25 18:33N 58°47' E 010°13'7 0.4
2015-May-25 01:20N 58°41' E 010°21'2 1.3
2015-May-25 00:04N 58°40' E 010°23'1 1.3
2015-May-24 23:33N 58°40' E 010°24'1 1.2
2015-May-24 22:31N 58°39' E 010°25'1 1.3
2015-May-24 21:32N 58°38' E 010°27'1 1.4
2015-May-24 20:33N 58°37' E 010°29'3 2.6
2015-May-24 19:16N 58°39' E 010°35'12 5.8
2015-May-24 17:08N 58°49' E 010°48'3 6.0
2015-May-24 16:33N 58°52' E 010°52'7 6.2
2015-May-24 15:29N 58°56' E 011°02'4 0.2
2015-May-23 16:31N 58°56' E 011°10'0 0.0
2015-May-23 15:31N 58°56' E 011°10'0 0.0
2015-May-23 14:10N 58°56' E 011°10'3 0.1
2015-May-21 11:32N 58°57' E 011°04'7 7.4
2015-May-21 10:33N 59°02' E 010°55'3 2.7
2015-May-21 09:33N 59°05' E 010°52'0 0.0
2015-May-21 08:33N 59°05' E 010°52'0 0.0
2015-May-21 07:33N 59°05' E 010°52'0 0.0
2015-May-21 06:33N 59°05' E 010°52'0 0.0
2015-May-21 05:33N 59°05' E 010°52'2 2.3
2015-May-21 04:33N 59°03' E 010°55'8 0.7
2015-May-20 17:31N 58°55' E 011°01'25 0.8
2015-May-19 10:06N 58°40' E 010°23'2 1.2
2015-May-19 08:21N 58°38' E 010°26'1 1.4
2015-May-19 07:33N 58°37' E 010°27'1 1.3
2015-May-19 06:32N 58°36' E 010°28'2 1.6
2015-May-19 05:33N 58°35' E 010°30'6 1.5
2015-May-19 01:33N 58°38' E 010°20'1 1.3
2015-May-19 00:33N 58°37' E 010°20'1 1.3
2015-May-18 23:33N 58°35' E 010°22'1 1.3
2015-May-18 22:30N 58°34' E 010°23'1 1.3
2015-May-18 21:32N 58°33' E 010°24'1 1.4
2015-May-18 20:33N 58°32' E 010°24'6 0.9
2015-May-18 14:08N 58°37' E 010°19'0 0.4
2015-May-18 13:33N 58°36' E 010°19'1 1.4
2015-May-18 12:28N 58°35' E 010°20'2 1.4
2015-May-18 11:19N 58°34' E 010°22'1 1.4
2015-May-18 10:33N 58°33' E 010°23'1 1.4
2015-May-18 09:34N 58°32' E 010°24'1 1.4
2015-May-18 08:33N 58°31' E 010°26'1 1.4
2015-May-18 07:34N 58°30' E 010°28'1 1.3
2015-May-18 06:33N 58°29' E 010°30'1 1.3
2015-May-18 05:33N 58°28' E 010°31'1 1.4
2015-May-18 04:33N 58°26' E 010°30'1 1.3
2015-May-18 03:33N 58°25' E 010°30'  

Dump ship's entire track history